Time;durP1;ratioP1;P1;durP2;ratioP2;P2;SDS_P1;SDS_P2;PMS_P1;PMS_P2;Temp;Humidity;BMP_temperature;BMP_pressure;BME280_temperature;BME280_humidity;BME280_pressure;Samples;Min_cycle;Max_cycle;Signal;HPM_P1;HPM_P2
2023/04/28 00:03:54;;;;;;;10.15;5.30;;;;;;;;;;10085137;28;20056;-80
2023/04/28 00:08:47;;;;;;;9.60;5.85;;;;;;;;;;10091831;28;20088;-80
2023/04/28 00:13:41;;;;;;;5.40;4.63;;;;;;;;;;10084063;28;20080;-80
2023/04/28 00:18:35;;;;;;;10.38;6.22;;;;;;;;;;10078937;28;20080;-81
2023/04/28 00:23:28;;;;;;;6.68;5.90;;;;;;;;;;10104400;28;20151;-81
2023/04/28 00:28:22;;;;;;;7.93;6.20;;;;;;;;;;10090127;28;20040;-83
2023/04/28 00:33:26;;;;;;;7.68;5.47;;;;;;;;;;10090848;28;20062;-86
2023/04/28 00:38:19;;;;;;;12.30;5.57;;;;;;;;;;10070541;28;20052;-82
2023/04/28 00:43:13;;;;;;;8.27;5.50;;;;;;;;;;10103092;28;20451;-81
2023/04/28 00:48:08;;;;;;;9.93;5.93;;;;;;;;;;10060026;28;20069;-81
2023/04/28 00:53:02;;;;;;;11.07;5.82;;;;;;;;;;10091564;28;20045;-81
2023/04/28 00:57:56;;;;;;;7.90;5.93;;;;;;;;;;10062791;28;20076;-81
2023/04/28 01:02:51;;;;;;;7.00;6.03;;;;;;;;;;10099304;28;20106;-81
2023/04/28 01:07:46;;;;;;;9.13;5.28;;;;;;;;;;10073993;28;20053;-82
2023/04/28 01:12:39;;;;;;;6.85;5.28;;;;;;;;;;10062578;28;20049;-82
2023/04/28 01:17:31;;;;;;;9.45;5.85;;;;;;;;;;10103482;28;20045;-82
2023/04/28 01:22:26;;;;;;;8.80;5.63;;;;;;;;;;10075499;28;20057;-82
2023/04/28 01:27:22;;;;;;;4.82;4.43;;;;;;;;;;10073149;28;20094;-82
2023/04/28 01:32:16;;;;;;;10.43;4.80;;;;;;;;;;10056799;28;20045;-81
2023/04/28 01:37:10;;;;;;;8.52;5.63;;;;;;;;;;10089384;28;20047;-82
2023/04/28 01:42:04;;;;;;;6.60;5.05;;;;;;;;;;10086969;28;20068;-81
2023/04/28 01:46:57;;;;;;;7.78;4.43;;;;;;;;;;10098202;28;20487;-81
2023/04/28 01:51:51;;;;;;;6.45;4.40;;;;;;;;;;10127540;28;20061;-83
2023/04/28 01:56:44;;;;;;;5.53;4.47;;;;;;;;;;10115028;28;20098;-83
2023/04/28 02:01:40;;;;;;;4.90;4.40;;;;;;;;;;10103153;28;20048;-82
2023/04/28 02:06:33;;;;;;;7.28;4.82;;;;;;;;;;10107469;28;20049;-83
2023/04/28 02:11:27;;;;;;;9.40;5.45;;;;;;;;;;10118192;28;20051;-83
2023/04/28 02:16:22;;;;;;;8.88;5.90;;;;;;;;;;10097219;28;20082;-82
2023/04/28 02:21:15;;;;;;;8.23;6.90;;;;;;;;;;10123440;28;20055;-83
2023/04/28 02:26:09;;;;;;;9.35;6.63;;;;;;;;;;10116923;28;20080;-84
2023/04/28 02:31:09;;;;;;;7.03;6.30;;;;;;;;;;10133305;28;20040;-83
2023/04/28 02:36:03;;;;;;;7.80;6.68;;;;;;;;;;10119704;28;20055;-82
2023/04/28 02:40:58;;;;;;;8.65;6.20;;;;;;;;;;10123067;28;20061;-83
2023/04/28 02:45:52;;;;;;;7.70;6.28;;;;;;;;;;10104815;28;20045;-83
2023/04/28 02:50:46;;;;;;;9.65;6.47;;;;;;;;;;10120514;28;20140;-83
2023/04/28 02:55:39;;;;;;;8.95;6.07;;;;;;;;;;10137145;28;20082;-83
2023/04/28 03:00:32;;;;;;;10.07;6.60;;;;;;;;;;10116568;28;20131;-82
2023/04/28 03:05:25;;;;;;;22.88;6.95;;;;;;;;;;10112294;28;20079;-83
2023/04/28 03:10:19;;;;;;;8.07;6.20;;;;;;;;;;10118538;28;20072;-83
2023/04/28 03:15:12;;;;;;;8.50;6.18;;;;;;;;;;10115328;28;20510;-83
2023/04/28 03:20:06;;;;;;;7.35;6.30;;;;;;;;;;10098057;28;20041;-83
2023/04/28 03:24:59;;;;;;;13.50;6.55;;;;;;;;;;10120179;28;20045;-83
2023/04/28 03:29:54;;;;;;;7.43;5.68;;;;;;;;;;10125643;28;20079;-81
2023/04/28 03:34:48;;;;;;;5.93;5.25;;;;;;;;;;10098368;28;20073;-82
2023/04/28 03:39:41;;;;;;;9.25;6.50;;;;;;;;;;10104678;28;20076;-81
2023/04/28 03:44:35;;;;;;;6.45;5.63;;;;;;;;;;10116719;28;20055;-82
2023/04/28 03:49:31;;;;;;;8.60;5.72;;;;;;;;;;10090945;28;20081;-83
2023/04/28 03:54:24;;;;;;;7.60;5.72;;;;;;;;;;10066244;28;20076;-81
2023/04/28 03:59:19;;;;;;;8.05;6.40;;;;;;;;;;10077693;28;20053;-82
2023/04/28 04:04:13;;;;;;;8.75;6.22;;;;;;;;;;10067998;28;20049;-82
2023/04/28 04:09:09;;;;;;;8.07;6.47;;;;;;;;;;10059972;28;20091;-82
2023/04/28 04:14:03;;;;;;;8.25;5.80;;;;;;;;;;10063813;28;20077;-82
2023/04/28 04:18:57;;;;;;;11.02;7.10;;;;;;;;;;10053598;28;20057;-82
2023/04/28 04:24:03;;;;;;;8.25;6.97;;;;;;;;;;10058114;28;20057;-81
2023/04/28 04:28:56;;;;;;;9.90;6.47;;;;;;;;;;10070029;28;20110;-82
2023/04/28 04:33:49;;;;;;;8.35;7.25;;;;;;;;;;10064098;28;20567;-82
2023/04/28 04:38:46;;;;;;;13.27;6.95;;;;;;;;;;10053724;28;20097;-82
2023/04/28 04:43:41;;;;;;;12.20;7.72;;;;;;;;;;10076525;28;20040;-82
2023/04/28 04:48:34;;;;;;;8.98;6.93;;;;;;;;;;10099600;28;20127;-82
2023/04/28 04:53:28;;;;;;;9.35;7.45;;;;;;;;;;10114001;28;20530;-82
2023/04/28 04:58:22;;;;;;;7.75;6.95;;;;;;;;;;10117655;28;20067;-82
2023/04/28 05:03:35;;;;;;;9.48;6.03;;;;;;;;;;10124669;28;20052;-82
2023/04/28 05:08:29;;;;;;;9.68;5.97;;;;;;;;;;10121678;28;20049;-83
2023/04/28 05:13:22;;;;;;;7.57;5.93;;;;;;;;;;10105872;28;20049;-83
2023/04/28 05:18:21;;;;;;;7.90;6.50;;;;;;;;;;10086972;28;20056;-84
2023/04/28 05:23:14;;;;;;;8.05;6.88;;;;;;;;;;10101156;28;20052;-82
2023/04/28 05:28:09;;;;;;;8.55;5.85;;;;;;;;;;10099121;28;20426;-83
2023/04/28 05:33:02;;;;;;;7.72;6.65;;;;;;;;;;10089296;28;20084;-86
2023/04/28 05:37:57;;;;;;;9.13;8.15;;;;;;;;;;10120974;28;20044;-81
2023/04/28 05:42:50;;;;;;;19.67;9.88;;;;;;;;;;10103884;28;20048;-67
2023/04/28 05:47:43;;;;;;;9.02;8.02;;;;;;;;;;10121826;28;20102;-68
2023/04/28 05:52:37;;;;;;;11.07;9.00;;;;;;;;;;10120690;28;20659;-66
2023/04/28 05:57:30;;;;;;;10.90;9.05;;;;;;;;;;10115817;28;20052;-66
2023/04/28 06:02:41;;;;;;;13.75;8.88;;;;;;;;;;10081199;28;20122;-67
2023/04/28 06:07:36;;;;;;;13.50;9.32;;;;;;;;;;10102612;28;20057;-66
2023/04/28 06:12:29;;;;;;;15.43;9.05;;;;;;;;;;10125986;28;20079;-66
2023/04/28 06:17:22;;;;;;;15.10;9.77;;;;;;;;;;10085518;28;20048;-65
2023/04/28 06:22:16;;;;;;;17.55;10.00;;;;;;;;;;10091052;28;20040;-66
2023/04/28 06:27:11;;;;;;;13.52;9.85;;;;;;;;;;10093647;28;20044;-66
2023/04/28 06:32:04;;;;;;;13.02;9.40;;;;;;;;;;10115706;28;20079;-67
2023/04/28 06:37:00;;;;;;;15.88;10.63;;;;;;;;;;10112511;28;20048;-68
2023/04/28 06:41:53;;;;;;;14.85;10.65;;;;;;;;;;10114376;28;20575;-69
2023/04/28 06:46:48;;;;;;;14.25;11.18;;;;;;;;;;10128292;28;20060;-67
2023/04/28 06:51:42;;;;;;;12.30;9.05;;;;;;;;;;10150438;28;20048;-67
2023/04/28 06:56:35;;;;;;;10.35;9.25;;;;;;;;;;10116835;28;20049;-65
2023/04/28 07:01:28;;;;;;;12.02;9.68;;;;;;;;;;10138981;28;20529;-64
2023/04/28 07:06:21;;;;;;;10.95;8.55;;;;;;;;;;10138576;28;20041;-64
2023/04/28 07:11:15;;;;;;;10.13;8.02;;;;;;;;;;10140821;28;20053;-65
2023/04/28 07:16:09;;;;;;;11.98;8.07;;;;;;;;;;10137009;28;20053;-65
2023/04/28 07:21:06;;;;;;;14.70;9.85;;;;;;;;;;10122787;28;20047;-65
2023/04/28 07:26:01;;;;;;;16.13;9.23;;;;;;;;;;10134396;28;20055;-65
2023/04/28 07:30:55;;;;;;;14.45;11.15;;;;;;;;;;10142520;28;20048;-65
2023/04/28 07:35:48;;;;;;;21.00;12.65;;;;;;;;;;10132140;28;20080;-66
2023/04/28 07:40:42;;;;;;;14.95;13.32;;;;;;;;;;10127709;28;20045;-65
2023/04/28 07:45:38;;;;;;;13.45;12.13;;;;;;;;;;10130717;28;20498;-66
2023/04/28 07:50:32;;;;;;;19.63;13.43;;;;;;;;;;10121373;28;20085;-65
2023/04/28 07:55:25;;;;;;;16.15;14.45;;;;;;;;;;10116873;28;20052;-66
2023/04/28 08:00:18;;;;;;;15.07;13.57;;;;;;;;;;10118740;28;20049;-65
2023/04/28 08:05:12;;;;;;;14.10;12.70;;;;;;;;;;10130978;28;20076;-66
2023/04/28 08:10:08;;;;;;;13.43;12.05;;;;;;;;;;10119880;28;20052;-66
2023/04/28 08:15:02;;;;;;;17.08;14.75;;;;;;;;;;10122664;28;20065;-66
2023/04/28 08:19:56;;;;;;;15.35;13.10;;;;;;;;;;10134407;28;20053;-66
2023/04/28 08:24:48;;;;;;;17.77;14.32;;;;;;;;;;10106919;28;20088;-66
2023/04/28 08:29:42;;;;;;;16.63;14.93;;;;;;;;;;10134946;28;20091;-66
2023/04/28 08:34:34;;;;;;;15.63;13.82;;;;;;;;;;10128996;28;20052;-66
2023/04/28 08:39:28;;;;;;;18.02;14.43;;;;;;;;;;10109033;28;20044;-67
2023/04/28 08:44:22;;;;;;;15.50;13.90;;;;;;;;;;10122392;28;20057;-65
2023/04/28 08:49:18;;;;;;;14.88;12.05;;;;;;;;;;10117900;28;20079;-66
2023/04/28 08:54:16;;;;;;;11.60;10.35;;;;;;;;;;10110948;28;20052;-66
2023/04/28 08:59:18;;;;;;;14.73;11.60;;;;;;;;;;10125155;28;20048;-68
2023/04/28 09:04:11;;;;;;;17.08;13.35;;;;;;;;;;10122240;28;20458;-66
2023/04/28 09:09:29;;;;;;;13.05;11.52;;;;;;;;;;10119342;28;20048;-66
2023/04/28 09:14:27;;;;;;;16.98;12.68;;;;;;;;;;10127410;28;20511;-66
2023/04/28 09:19:21;;;;;;;13.23;11.02;;;;;;;;;;10117963;28;20450;-66
2023/04/28 09:24:39;;;;;;;13.38;10.15;;;;;;;;;;10134465;28;20048;-67
2023/04/28 09:29:32;;;;;;;12.85;9.77;;;;;;;;;;10121290;28;20053;-66
2023/04/28 09:34:25;;;;;;;14.38;9.38;;;;;;;;;;10107628;28;20052;-66
2023/04/28 09:39:32;;;;;;;11.45;10.18;;;;;;;;;;10113232;28;20552;-67
2023/04/28 09:44:26;;;;;;;13.97;9.83;;;;;;;;;;10139878;28;20408;-67
2023/04/28 09:49:19;;;;;;;12.13;9.70;;;;;;;;;;10133606;28;20057;-67
2023/04/28 09:54:12;;;;;;;13.45;10.52;;;;;;;;;;10120956;28;20091;-68
2023/04/28 09:59:06;;;;;;;21.38;10.52;;;;;;;;;;10097517;28;20048;-66
2023/04/28 10:04:01;;;;;;;14.82;10.55;;;;;;;;;;10137038;28;20052;-65
2023/04/28 10:08:57;;;;;;;12.90;9.13;;;;;;;;;;10125708;28;20538;-64
2023/04/28 10:13:52;;;;;;;10.30;7.90;;;;;;;;;;10138201;28;20545;-65
2023/04/28 10:18:47;;;;;;;13.68;7.80;;;;;;;;;;10131370;28;20659;-65
2023/04/28 10:23:58;;;;;;;10.68;7.90;;;;;;;;;;10117957;28;20530;-65
2023/04/28 10:28:53;;;;;;;10.40;7.60;;;;;;;;;;10141422;28;20402;-65
2023/04/28 10:33:46;;;;;;;10.98;8.20;;;;;;;;;;10133590;28;20135;-65
2023/04/28 10:39:10;;;;;;;9.43;7.90;;;;;;;;;;10105405;28;20064;-65
2023/04/28 10:44:28;;;;;;;8.65;6.57;;;;;;;;;;10134561;28;20055;-66
2023/04/28 10:49:53;;;;;;;11.35;6.25;;;;;;;;;;10137976;28;20057;-65
2023/04/28 10:55:24;;;;;;;9.57;8.25;;;;;;;;;;10116650;28;20055;-65
2023/04/28 11:00:29;;;;;;;17.83;8.32;;;;;;;;;;10128257;28;20131;-66
2023/04/28 11:05:22;;;;;;;10.38;8.27;;;;;;;;;;10126886;28;20052;-65
2023/04/28 11:10:15;;;;;;;11.18;7.88;;;;;;;;;;10097823;28;20082;-65
2023/04/28 11:15:12;;;;;;;13.88;8.07;;;;;;;;;;10116978;28;20048;-66
2023/04/28 11:20:08;;;;;;;13.38;10.05;;;;;;;;;;10122932;28;20107;-64
2023/04/28 11:25:03;;;;;;;13.48;11.48;;;;;;;;;;10117193;28;20041;-67
2023/04/28 11:29:57;;;;;;;13.10;9.38;;;;;;;;;;10126923;28;20049;-69
2023/04/28 11:34:51;;;;;;;20.40;10.48;;;;;;;;;;10125102;28;20059;-66
2023/04/28 11:39:44;;;;;;;11.45;9.05;;;;;;;;;;10121312;28;20045;-66
2023/04/28 11:44:37;;;;;;;11.05;8.68;;;;;;;;;;10135143;28;20056;-67
2023/04/28 11:49:42;;;;;;;15.05;9.40;;;;;;;;;;10112476;28;20060;-67
2023/04/28 11:54:36;;;;;;;10.80;9.52;;;;;;;;;;10118526;28;20087;-66
2023/04/28 11:59:31;;;;;;;15.80;11.63;;;;;;;;;;10119368;28;20059;-67
2023/04/28 12:04:41;;;;;;;11.53;8.10;;;;;;;;;;10126610;28;20139;-65
2023/04/28 12:09:34;;;;;;;13.45;8.88;;;;;;;;;;10128660;28;20086;-68
2023/04/28 12:14:30;;;;;;;11.82;8.82;;;;;;;;;;10132336;28;20052;-67
2023/04/28 12:19:24;;;;;;;14.57;8.32;;;;;;;;;;10132191;28;20060;-67
2023/04/28 12:24:23;;;;;;;13.43;8.05;;;;;;;;;;10132077;28;20053;-66
2023/04/28 12:29:39;;;;;;;11.85;6.97;;;;;;;;;;10132237;28;20052;-65
2023/04/28 12:34:35;;;;;;;7.78;5.28;;;;;;;;;;10127104;28;20049;-66
2023/04/28 12:39:29;;;;;;;10.40;5.80;;;;;;;;;;10127997;28;20083;-68
2023/04/28 12:44:23;;;;;;;7.38;4.97;;;;;;;;;;10134919;28;20109;-67
2023/04/28 12:49:15;;;;;;;7.60;4.88;;;;;;;;;;10135009;28;20048;-67
2023/04/28 12:54:08;;;;;;;10.10;4.15;;;;;;;;;;10126206;28;20064;-67
2023/04/28 12:59:03;;;;;;;10.18;4.43;;;;;;;;;;10121005;28;20730;-67
2023/04/28 13:03:56;;;;;;;9.00;4.43;;;;;;;;;;10145721;28;20106;-66
2023/04/28 13:08:50;;;;;;;7.80;4.13;;;;;;;;;;10141176;28;20045;-67
2023/04/28 13:13:44;;;;;;;5.75;3.47;;;;;;;;;;10137135;28;20130;-67
2023/04/28 13:18:37;;;;;;;6.97;3.65;;;;;;;;;;10134750;28;20098;-67
2023/04/28 13:23:30;;;;;;;7.55;4.65;;;;;;;;;;10120086;28;20048;-67
2023/04/28 13:28:24;;;;;;;9.35;4.72;;;;;;;;;;10129075;28;20053;-67
2023/04/28 13:33:18;;;;;;;7.97;4.15;;;;;;;;;;10132469;28;20049;-67
2023/04/28 13:38:12;;;;;;;7.50;4.07;;;;;;;;;;10122184;28;20459;-66
2023/04/28 13:43:05;;;;;;;7.85;4.80;;;;;;;;;;10134244;28;21114;-69
2023/04/28 13:47:59;;;;;;;9.00;5.05;;;;;;;;;;10130091;28;20135;-68
2023/04/28 13:52:52;;;;;;;10.43;5.80;;;;;;;;;;10128482;28;20102;-67
2023/04/28 13:57:46;;;;;;;8.52;4.45;;;;;;;;;;10124379;28;20051;-67
2023/04/28 14:02:40;;;;;;;10.73;6.47;;;;;;;;;;10126162;28;20108;-67
2023/04/28 14:07:33;;;;;;;13.43;5.05;;;;;;;;;;10123434;28;20145;-67
2023/04/28 14:12:27;;;;;;;7.45;5.30;;;;;;;;;;10141336;28;20055;-67
2023/04/28 14:17:21;;;;;;;11.15;5.03;;;;;;;;;;10136428;28;20106;-67
2023/04/28 14:22:15;;;;;;;8.32;6.00;;;;;;;;;;10121906;28;20044;-69
2023/04/28 14:27:08;;;;;;;10.05;5.38;;;;;;;;;;10144590;28;20139;-69
2023/04/28 14:32:03;;;;;;;8.70;7.28;;;;;;;;;;10139843;28;20060;-68
2023/04/28 14:36:56;;;;;;;13.57;7.32;;;;;;;;;;10124859;28;20430;-67
2023/04/28 14:41:49;;;;;;;8.02;6.03;;;;;;;;;;10123695;28;20057;-69
2023/04/28 14:46:43;;;;;;;11.52;6.13;;;;;;;;;;10118140;28;20471;-68
2023/04/28 14:51:37;;;;;;;9.40;6.57;;;;;;;;;;10094600;28;20053;-69
2023/04/28 14:56:31;;;;;;;10.98;7.47;;;;;;;;;;10083635;28;20128;-68
2023/04/28 15:01:25;;;;;;;8.50;6.45;;;;;;;;;;10103663;28;20098;-69
2023/04/28 15:06:18;;;;;;;9.73;7.30;;;;;;;;;;10102785;28;20507;-69
2023/04/28 15:11:11;;;;;;;12.65;7.07;;;;;;;;;;10101962;28;20138;-69
2023/04/28 15:16:06;;;;;;;10.35;8.70;;;;;;;;;;10103163;28;20057;-67
2023/04/28 15:20:59;;;;;;;11.82;7.32;;;;;;;;;;10088411;28;20056;-68
2023/04/28 15:25:53;;;;;;;11.95;7.22;;;;;;;;;;10090532;28;20056;-68
2023/04/28 15:30:47;;;;;;;9.75;8.18;;;;;;;;;;10086868;28;20140;-65
2023/04/28 15:35:41;;;;;;;11.68;7.70;;;;;;;;;;10085276;28;20057;-68
2023/04/28 15:40:35;;;;;;;9.95;8.95;;;;;;;;;;10056360;28;20056;-68
2023/04/28 15:45:29;;;;;;;9.68;7.25;;;;;;;;;;10093927;28;20343;-68
2023/04/28 15:50:23;;;;;;;10.90;5.82;;;;;;;;;;10089381;28;20064;-66
2023/04/28 15:55:17;;;;;;;8.52;5.75;;;;;;;;;;10092280;28;20044;-66
2023/04/28 16:00:13;;;;;;;13.45;6.47;;;;;;;;;;10078666;28;20512;-66
2023/04/28 16:05:07;;;;;;;11.60;6.45;;;;;;;;;;10065515;28;20049;-66
2023/04/28 16:10:01;;;;;;;7.82;6.90;;;;;;;;;;10082757;28;20451;-67
2023/04/28 16:14:55;;;;;;;10.18;6.32;;;;;;;;;;10075720;28;20061;-67
2023/04/28 16:19:49;;;;;;;11.73;5.70;;;;;;;;;;10064764;28;20057;-66
2023/04/28 16:24:45;;;;;;;7.45;5.75;;;;;;;;;;10085376;28;20049;-67
2023/04/28 16:29:42;;;;;;;7.85;5.32;;;;;;;;;;10078061;28;20054;-68
2023/04/28 16:34:36;;;;;;;6.07;4.70;;;;;;;;;;10089220;28;20053;-67
2023/04/28 16:39:30;;;;;;;7.05;5.20;;;;;;;;;;10080051;28;20079;-67
2023/04/28 16:44:24;;;;;;;7.25;4.65;;;;;;;;;;10063744;28;20060;-67
2023/04/28 16:49:18;;;;;;;11.45;6.97;;;;;;;;;;10118730;28;20067;-66
2023/04/28 16:54:11;;;;;;;8.18;6.63;;;;;;;;;;10119503;28;20140;-67
2023/04/28 16:59:05;;;;;;;10.60;6.65;;;;;;;;;;10122750;28;20053;-67
2023/04/28 17:04:01;;;;;;;6.78;5.32;;;;;;;;;;10113306;28;20826;-67
2023/04/28 17:08:55;;;;;;;9.85;4.68;;;;;;;;;;10134543;28;20056;-66
2023/04/28 17:13:49;;;;;;;7.80;5.35;;;;;;;;;;10102869;28;20474;-67
2023/04/28 17:18:43;;;;;;;7.35;5.18;;;;;;;;;;10131450;28;20052;-66
2023/04/28 17:23:37;;;;;;;6.63;5.80;;;;;;;;;;10129505;28;20135;-67
2023/04/28 17:28:32;;;;;;;12.73;6.00;;;;;;;;;;10140288;28;20059;-67
2023/04/28 17:33:25;;;;;;;5.93;5.38;;;;;;;;;;10119763;28;20072;-66
2023/04/28 17:38:19;;;;;;;10.38;5.78;;;;;;;;;;10116038;28;20068;-68
2023/04/28 17:43:12;;;;;;;10.55;5.05;;;;;;;;;;10113859;28;20495;-67
2023/04/28 17:48:06;;;;;;;11.80;5.93;;;;;;;;;;10120602;28;20500;-67
2023/04/28 17:53:00;;;;;;;12.30;6.03;;;;;;;;;;10104040;28;20063;-67
2023/04/28 17:57:53;;;;;;;8.20;5.60;;;;;;;;;;10093719;28;20056;-67
2023/04/28 18:02:47;;;;;;;12.25;5.95;;;;;;;;;;10060410;28;20389;-67
2023/04/28 18:07:40;;;;;;;13.32;5.97;;;;;;;;;;10071016;28;20053;-67
2023/04/28 18:12:34;;;;;;;7.13;5.13;;;;;;;;;;10082162;28;20069;-67
2023/04/28 18:17:28;;;;;;;9.68;6.90;;;;;;;;;;10081722;28;20045;-68
2023/04/28 18:22:21;;;;;;;10.95;5.47;;;;;;;;;;10094707;28;20412;-67
2023/04/28 18:27:16;;;;;;;15.85;6.95;;;;;;;;;;10084083;28;20510;-69
2023/04/28 18:32:10;;;;;;;9.88;7.75;;;;;;;;;;10081750;28;20053;-68
2023/04/28 18:37:06;;;;;;;10.13;7.10;;;;;;;;;;10080966;28;20079;-68
2023/04/28 18:42:00;;;;;;;11.10;7.20;;;;;;;;;;10089494;28;20046;-66
2023/04/28 18:46:53;;;;;;;13.77;6.50;;;;;;;;;;10094790;28;20052;-68
2023/04/28 18:51:46;;;;;;;10.25;7.38;;;;;;;;;;10086921;28;20059;-67
2023/04/28 18:56:40;;;;;;;16.70;8.23;;;;;;;;;;10101919;28;20057;-68
2023/04/28 19:01:33;;;;;;;17.33;8.55;;;;;;;;;;10087684;28;20136;-67
2023/04/28 19:06:27;;;;;;;14.63;8.00;;;;;;;;;;10070977;28;20077;-65
2023/04/28 19:11:23;;;;;;;14.05;8.30;;;;;;;;;;10077550;28;20052;-65
2023/04/28 19:16:17;;;;;;;11.23;8.32;;;;;;;;;;10088514;28;20055;-66
2023/04/28 19:21:11;;;;;;;10.07;7.80;;;;;;;;;;10071000;28;20048;-68
2023/04/28 19:26:05;;;;;;;11.55;7.57;;;;;;;;;;10065963;28;20041;-68
2023/04/28 19:30:59;;;;;;;9.65;8.43;;;;;;;;;;10083310;28;20080;-67
2023/04/28 19:35:53;;;;;;;11.05;7.35;;;;;;;;;;10086799;28;20068;-68
2023/04/28 19:40:48;;;;;;;13.88;9.07;;;;;;;;;;10093546;28;20052;-68
2023/04/28 19:45:42;;;;;;;11.52;8.10;;;;;;;;;;10081014;28;20049;-64
2023/04/28 19:50:37;;;;;;;13.63;9.13;;;;;;;;;;10119808;28;20065;-67
2023/04/28 19:55:31;;;;;;;12.40;7.97;;;;;;;;;;10121514;28;20083;-65
2023/04/28 20:00:24;;;;;;;11.77;8.32;;;;;;;;;;10126188;28;20048;-68
2023/04/28 20:05:21;;;;;;;10.75;8.90;;;;;;;;;;10131956;28;20461;-67
2023/04/28 20:10:31;;;;;;;11.45;8.95;;;;;;;;;;10121368;28;20781;-65
2023/04/28 20:15:27;;;;;;;12.40;9.23;;;;;;;;;;10134842;28;20057;-64
2023/04/28 20:20:24;;;;;;;15.77;10.20;;;;;;;;;;10138496;28;20499;-65
2023/04/28 20:25:18;;;;;;;12.60;9.82;;;;;;;;;;10148520;28;20051;-65
2023/04/28 20:30:12;;;;;;;11.50;9.70;;;;;;;;;;10149404;28;20556;-68
2023/04/28 20:35:05;;;;;;;12.55;10.18;;;;;;;;;;10129000;28;20060;-68
2023/04/28 20:39:58;;;;;;;11.73;9.15;;;;;;;;;;10153231;28;20095;-68
2023/04/28 20:44:52;;;;;;;12.43;8.23;;;;;;;;;;10117502;28;20036;-69
2023/04/28 20:49:45;;;;;;;11.85;9.57;;;;;;;;;;10111569;28;20155;-70
2023/04/28 20:54:42;;;;;;;12.38;7.82;;;;;;;;;;10115594;28;20321;-68
2023/04/28 20:59:35;;;;;;;9.85;8.02;;;;;;;;;;10147009;28;20070;-71
2023/04/28 21:04:29;;;;;;;11.15;8.20;;;;;;;;;;10142519;28;20110;-68
2023/04/28 21:09:23;;;;;;;12.60;8.43;;;;;;;;;;10141495;28;20109;-68
2023/04/28 21:14:18;;;;;;;11.18;8.10;;;;;;;;;;10158374;28;20048;-70
2023/04/28 21:19:11;;;;;;;9.88;8.88;;;;;;;;;;10155534;28;20044;-70
2023/04/28 21:24:09;;;;;;;12.18;8.98;;;;;;;;;;10157564;28;20095;-69
2023/04/28 21:29:08;;;;;;;10.00;8.95;;;;;;;;;;10144900;28;20049;-69
2023/04/28 21:34:04;;;;;;;12.63;10.00;;;;;;;;;;10150567;28;20044;-69
2023/04/28 21:38:59;;;;;;;13.32;11.43;;;;;;;;;;10156193;28;20059;-68
2023/04/28 21:43:54;;;;;;;14.13;10.02;;;;;;;;;;10151403;28;20457;-68
2023/04/28 21:48:47;;;;;;;12.43;9.70;;;;;;;;;;10160587;28;20059;-69
2023/04/28 21:53:41;;;;;;;13.15;10.90;;;;;;;;;;10133051;28;20048;-70
2023/04/28 21:58:36;;;;;;;13.75;9.82;;;;;;;;;;10157337;28;20408;-70
2023/04/28 22:03:29;;;;;;;12.85;10.95;;;;;;;;;;10163459;28;20105;-68
2023/04/28 22:08:26;;;;;;;15.40;10.48;;;;;;;;;;10145384;28;20043;-69
2023/04/28 22:13:21;;;;;;;13.48;9.85;;;;;;;;;;10149497;28;20049;-69
2023/04/28 22:18:16;;;;;;;12.45;10.10;;;;;;;;;;10154428;28;20147;-69
2023/04/28 22:23:10;;;;;;;15.43;10.15;;;;;;;;;;10155950;28;20048;-68
2023/04/28 22:28:04;;;;;;;13.50;10.90;;;;;;;;;;10134159;28;20087;-69
2023/04/28 22:32:58;;;;;;;13.85;10.05;;;;;;;;;;10137975;28;20056;-68
2023/04/28 22:37:52;;;;;;;12.00;10.57;;;;;;;;;;10129614;28;20064;-68
2023/04/28 22:42:45;;;;;;;13.60;10.57;;;;;;;;;;10138202;28;20179;-68
2023/04/28 22:47:41;;;;;;;12.38;10.77;;;;;;;;;;10143626;28;20052;-67
2023/04/28 22:52:37;;;;;;;13.18;11.73;;;;;;;;;;10138827;28;20136;-68
2023/04/28 22:57:30;;;;;;;16.48;10.82;;;;;;;;;;10137395;28;20058;-68
2023/04/28 23:02:23;;;;;;;12.90;11.23;;;;;;;;;;10141506;28;20052;-68
2023/04/28 23:07:17;;;;;;;12.38;10.90;;;;;;;;;;10135903;28;20127;-67
2023/04/28 23:12:11;;;;;;;12.32;10.50;;;;;;;;;;10146781;28;20064;-68
2023/04/28 23:17:04;;;;;;;17.52;10.73;;;;;;;;;;10146202;28;20053;-68
2023/04/28 23:21:58;;;;;;;14.00;10.95;;;;;;;;;;10146164;28;20071;-68
2023/04/28 23:26:51;;;;;;;16.15;11.90;;;;;;;;;;10137705;28;20411;-68
2023/04/28 23:31:50;;;;;;;13.93;11.65;;;;;;;;;;10149337;28;20080;-69
2023/04/28 23:36:44;;;;;;;12.30;10.75;;;;;;;;;;10131239;28;20143;-69
2023/04/28 23:41:38;;;;;;;15.13;11.10;;;;;;;;;;10136415;28;20044;-68
2023/04/28 23:46:32;;;;;;;16.60;11.10;;;;;;;;;;10124391;28;20137;-67
2023/04/28 23:51:25;;;;;;;13.75;10.68;;;;;;;;;;10122643;28;20589;-68
2023/04/28 23:56:18;;;;;;;15.63;10.07;;;;;;;;;;10123252;28;20434;-68
